createdAt,value
2022-09-07T00:01:52.878Z,82.97
2022-09-07T00:03:58.455Z,83.31
2022-09-07T00:06:09.128Z,83.58
2022-09-07T00:08:14.197Z,83.50
2022-09-07T00:10:19.209Z,83.62
2022-09-07T00:12:24.233Z,83.70
2022-09-07T00:14:28.887Z,84.43
2022-09-07T00:16:36.581Z,84.05
2022-09-07T00:18:45.817Z,83.80
2022-09-07T00:21:00.820Z,83.81
2022-09-07T00:23:05.867Z,84.79
2022-09-07T00:25:11.905Z,84.86
2022-09-07T00:27:16.937Z,84.72
2022-09-07T00:29:21.874Z,84.79
2022-09-07T00:31:27.073Z,84.72
2022-09-07T00:33:34.746Z,84.75
2022-09-07T00:35:43.402Z,85.27
2022-09-07T00:37:49.418Z,85.50
2022-09-07T00:39:54.971Z,85.76
2022-09-07T00:41:59.958Z,85.11
2022-09-07T00:44:34.682Z,85.43
2022-09-07T00:46:39.723Z,85.51
2022-09-07T00:48:53.804Z,86.51
2022-09-07T00:51:04.480Z,86.42
2022-09-07T00:53:13.790Z,85.84
2022-09-07T00:55:20.071Z,86.38
2022-09-07T00:57:28.265Z,86.21
2022-09-07T00:59:37.771Z,86.51
2022-09-07T01:01:43.125Z,86.69
2022-09-07T01:03:54.121Z,87.78
2022-09-07T01:06:02.328Z,88.63
2022-09-07T01:08:07.950Z,89.07
2022-09-07T01:10:13.241Z,88.57
2022-09-07T01:12:18.230Z,88.36
2022-09-07T01:14:25.747Z,88.42
2022-09-07T01:16:44.030Z,88.29
2022-09-07T01:18:59.804Z,89.08
2022-09-07T01:21:25.386Z,88.78
2022-09-07T01:24:07.067Z,89.23
2022-09-07T01:26:40.813Z,88.88
2022-09-07T01:28:54.924Z,88.64
2022-09-07T01:31:01.990Z,89.53
2022-09-07T01:33:18.864Z,89.14
2022-09-07T01:35:29.334Z,90.41
2022-09-07T01:37:43.967Z,90.85
2022-09-07T01:39:54.622Z,91.25
2022-09-07T01:42:04.242Z,90.84
2022-09-07T01:44:15.533Z,90.61
2022-09-07T01:46:27.756Z,91.05
2022-09-07T01:48:36.655Z,92.34
2022-09-07T01:50:45.615Z,91.98
2022-09-07T01:52:56.820Z,91.67
2022-09-07T01:55:06.429Z,92.23
2022-09-07T01:57:18.311Z,92.32
2022-09-07T01:59:32.239Z,92.51
2022-09-07T02:01:43.228Z,92.92
2022-09-07T02:03:51.653Z,92.90
2022-09-07T02:06:02.136Z,92.23
2022-09-07T02:08:13.022Z,92.67
2022-09-07T02:10:21.492Z,92.66
2022-09-07T02:12:35.073Z,93.21
2022-09-07T02:14:51.936Z,93.30
2022-09-07T02:17:03.420Z,93.70
2022-09-07T02:19:13.377Z,93.64
2022-09-07T02:21:22.302Z,93.54
2022-09-07T02:23:31.118Z,93.89
2022-09-07T02:25:40.661Z,93.48
2022-09-07T02:27:50.254Z,94.07
2022-09-07T02:29:58.082Z,94.32
2022-09-07T02:32:03.133Z,94.19
2022-09-07T02:34:07.978Z,94.94
2022-09-07T02:36:16.143Z,95.37
2022-09-07T02:38:22.023Z,95.08
2022-09-07T02:40:26.947Z,95.16
2022-09-07T02:42:35.087Z,95.01
2022-09-07T02:44:45.669Z,94.90
2022-09-07T02:47:08.388Z,94.94
2022-09-07T02:49:28.057Z,95.02
2022-09-07T02:51:39.897Z,94.39
2022-09-07T02:54:08.717Z,94.76
2022-09-07T02:56:26.095Z,95.47
2022-09-07T02:58:37.736Z,94.99
2022-09-07T03:00:47.802Z,95.32
2022-09-07T03:03:02.962Z,95.67
2022-09-07T03:05:14.842Z,96.50
2022-09-07T03:07:23.625Z,96.56
2022-09-07T03:09:33.896Z,97.37
2022-09-07T03:11:39.914Z,97.73
2022-09-07T03:13:45.062Z,97.79
2022-09-07T03:15:53.620Z,98.71
2022-09-07T03:18:03.239Z,98.48
2022-09-07T03:20:08.927Z,98.63
2022-09-07T03:22:16.717Z,98.34
2022-09-07T03:24:21.780Z,98.66
2022-09-07T03:26:27.502Z,98.99
2022-09-07T03:28:32.462Z,99.38
2022-09-07T03:30:37.839Z,99.56
2022-09-07T03:32:43.014Z,99.60
2022-09-07T03:34:50.451Z,100.00
2022-09-07T03:36:55.478Z,99.66
2022-09-07T03:39:01.252Z,99.98
2022-09-07T03:41:09.060Z,99.93
2022-09-07T03:43:14.074Z,100.00
2022-09-07T03:45:19.538Z,100.00
2022-09-07T03:47:24.503Z,100.00
2022-09-07T03:49:29.444Z,100.00
2022-09-07T03:51:37.021Z,100.00
2022-09-07T03:53:44.052Z,99.83
2022-09-07T03:55:59.038Z,100.00
2022-09-07T03:58:03.946Z,100.00
2022-09-07T04:00:10.013Z,100.00
2022-09-07T04:02:18.183Z,100.00
2022-09-07T04:04:23.294Z,100.00
2022-09-07T04:06:28.603Z,100.00
2022-09-07T04:08:38.550Z,100.00
2022-09-07T04:10:43.659Z,100.00
2022-09-07T04:12:49.498Z,100.00
2022-09-07T04:14:54.628Z,100.00
2022-09-07T04:16:59.693Z,100.00
2022-09-07T04:19:04.925Z,100.00
2022-09-07T04:21:10.345Z,100.00
2022-09-07T04:23:15.612Z,100.00
2022-09-07T04:25:23.458Z,100.00
2022-09-07T04:27:28.470Z,100.00
2022-09-07T04:29:33.669Z,100.00
2022-09-07T04:31:39.337Z,100.00
2022-09-07T04:33:45.108Z,100.00
2022-09-07T04:35:50.052Z,100.00
2022-09-07T04:37:55.021Z,100.00
2022-09-07T04:40:00.000Z,100.00
2022-09-07T04:42:07.835Z,100.00
2022-09-07T04:44:16.736Z,100.00
2022-09-07T04:46:24.173Z,100.00
2022-09-07T04:48:29.370Z,100.00
2022-09-07T04:50:34.844Z,100.00
2022-09-07T04:52:40.034Z,100.00
2022-09-07T04:54:45.180Z,100.00
2022-09-07T04:56:50.163Z,100.00
2022-09-07T04:58:57.664Z,100.00
2022-09-07T05:01:04.787Z,100.00
2022-09-07T05:03:09.874Z,100.00
2022-09-07T05:05:14.754Z,100.00
2022-09-07T05:07:19.734Z,100.00
2022-09-07T05:09:24.756Z,100.00
2022-09-07T05:11:30.878Z,100.00
2022-09-07T05:13:35.820Z,100.00
2022-09-07T05:15:43.396Z,100.00
2022-09-07T05:17:50.258Z,100.00
2022-09-07T05:19:55.262Z,100.00
2022-09-07T05:22:00.357Z,100.00
2022-09-07T05:24:06.961Z,100.00
2022-09-07T05:26:12.787Z,100.00
2022-09-07T05:28:19.596Z,100.00
2022-09-07T05:32:52.871Z,99.32
2022-09-07T05:34:58.234Z,99.48
2022-09-07T05:37:04.101Z,99.87
2022-09-07T05:39:09.881Z,99.37
2022-09-07T05:41:16.381Z,99.46
2022-09-07T05:43:22.014Z,99.80
2022-09-07T05:45:26.994Z,100.00
2022-09-07T05:47:32.482Z,100.00
2022-09-07T05:49:40.240Z,100.00
2022-09-07T05:51:45.167Z,100.00
2022-09-07T05:53:50.774Z,100.00
2022-09-07T05:55:55.703Z,100.00
2022-09-07T05:58:00.788Z,100.00
2022-09-07T06:00:06.345Z,100.00
2022-09-07T06:02:17.604Z,100.00
2022-09-07T06:04:22.707Z,100.00
2022-09-07T06:06:30.135Z,100.00
2022-09-07T06:08:36.274Z,100.00
2022-09-07T06:12:49.395Z,100.00
2022-09-07T06:14:54.806Z,100.00
2022-09-07T06:16:59.468Z,100.00
2022-09-07T06:19:07.815Z,100.00
2022-09-07T06:21:14.122Z,100.00
2022-09-07T06:23:21.835Z,100.00
2022-09-07T06:25:26.826Z,100.00
2022-09-07T06:27:31.821Z,100.00
2022-09-07T06:29:36.849Z,100.00
2022-09-07T06:34:07.328Z,100.00
2022-09-07T06:36:15.734Z,100.00
2022-09-07T06:38:23.205Z,100.00
2022-09-07T06:40:28.208Z,100.00
2022-09-07T06:42:33.114Z,100.00
2022-09-07T06:44:38.114Z,100.00
2022-09-07T06:49:08.246Z,100.00
2022-09-07T06:51:15.351Z,100.00
2022-09-07T06:53:35.613Z,100.00
2022-09-07T06:55:50.273Z,99.84
2022-09-07T06:57:55.706Z,98.66
2022-09-07T07:00:00.636Z,97.95
2022-09-07T07:02:05.470Z,97.56
2022-09-07T07:04:10.472Z,97.71
2022-09-07T07:06:16.280Z,97.42
2022-09-07T07:08:21.316Z,97.53
2022-09-07T07:10:26.345Z,96.50
2022-09-07T07:14:44.888Z,95.77
2022-09-07T07:16:50.225Z,94.45
2022-09-07T07:18:58.082Z,94.22
2022-09-07T07:21:05.714Z,94.27
2022-09-07T07:23:11.255Z,94.16
2022-09-07T07:25:16.615Z,93.39
2022-09-07T07:27:21.658Z,92.96
2022-09-07T07:29:29.139Z,91.51
2022-09-07T07:31:36.349Z,91.49
2022-09-07T07:33:41.659Z,91.10
2022-09-07T07:35:46.644Z,90.91
2022-09-07T07:40:23.488Z,91.51
2022-09-07T07:42:30.359Z,91.03
2022-09-07T07:44:37.923Z,90.92
2022-09-07T07:46:43.188Z,91.08
2022-09-07T07:48:51.239Z,91.17
2022-09-07T07:51:04.362Z,91.41
2022-09-07T07:55:44.187Z,90.80
2022-09-07T07:57:50.166Z,90.94
2022-09-07T07:59:57.682Z,90.33
2022-09-07T08:02:05.001Z,90.57
2022-09-07T08:04:10.477Z,90.15
2022-09-07T08:06:17.422Z,89.88
2022-09-07T08:08:23.070Z,89.69
2022-09-07T08:10:29.700Z,88.94
2022-09-07T08:12:34.548Z,88.25
2022-09-07T08:14:41.087Z,87.89
2022-09-07T08:16:49.337Z,87.16
2022-09-07T08:18:54.199Z,86.06
2022-09-07T08:21:03.085Z,85.80
2022-09-07T08:23:08.231Z,85.35
2022-09-07T08:25:13.015Z,84.59
2022-09-07T08:27:21.446Z,84.73
2022-09-07T08:29:27.234Z,84.33
2022-09-07T08:31:32.119Z,83.75
2022-09-07T08:33:41.343Z,83.88
2022-09-07T08:35:46.362Z,83.57
2022-09-07T08:37:50.855Z,82.32
2022-09-07T08:39:55.708Z,82.05
2022-09-07T08:42:14.455Z,81.21
2022-09-07T08:44:24.992Z,80.29
2022-09-07T08:46:33.858Z,79.40
2022-09-07T08:48:43.075Z,78.45
2022-09-07T08:50:56.350Z,77.62
2022-09-07T08:53:05.849Z,75.65
2022-09-07T08:55:17.428Z,71.86
2022-09-07T08:57:29.709Z,71.91
2022-09-07T08:59:43.551Z,70.50
2022-09-07T09:02:27.008Z,70.38
2022-09-07T09:04:25.512Z,70.14
2022-09-07T09:06:42.431Z,68.54
2022-09-07T09:09:04.629Z,68.26
2022-09-07T09:11:14.840Z,67.10
2022-09-07T09:13:22.569Z,67.04
2022-09-07T09:15:38.757Z,66.28
2022-09-07T09:17:50.082Z,65.80
2022-09-07T09:20:05.744Z,64.66
2022-09-07T09:22:16.307Z,65.00
2022-09-07T09:24:22.343Z,64.68
2022-09-07T09:26:29.149Z,64.64
2022-09-07T09:28:34.176Z,63.58
2022-09-07T09:30:39.078Z,62.40
2022-09-07T09:32:45.387Z,61.41
2022-09-07T09:35:04.048Z,60.71
2022-09-07T09:37:14.083Z,61.31
2022-09-07T09:39:28.869Z,59.90
2022-09-07T09:41:39.620Z,59.54
2022-09-07T09:43:47.980Z,58.80
2022-09-07T09:48:23.222Z,56.71
2022-09-07T09:53:04.238Z,56.91
2022-09-07T09:55:33.697Z,56.33
2022-09-07T10:00:27.969Z,54.65
2022-09-07T10:05:00.048Z,54.90
2022-09-07T10:07:20.964Z,55.15
2022-09-07T10:09:29.017Z,54.43
2022-09-07T10:14:21.966Z,54.95
2022-09-07T10:16:41.321Z,55.20
2022-09-07T10:18:58.668Z,55.06
2022-09-07T10:21:31.291Z,55.25
2022-09-07T10:23:38.858Z,54.36
2022-09-07T10:25:47.562Z,55.33
2022-09-07T10:28:04.397Z,54.36
2022-09-07T10:30:16.458Z,53.27
2022-09-07T10:32:35.006Z,53.57
2022-09-07T10:34:51.507Z,52.66
2022-09-07T10:37:04.482Z,52.42
2022-09-07T10:39:17.786Z,51.75
2022-09-07T10:41:31.098Z,50.97
2022-09-07T10:43:45.625Z,50.97
2022-09-07T10:48:54.425Z,51.11
2022-09-07T10:51:09.830Z,51.29
2022-09-07T10:53:40.668Z,51.83
2022-09-07T10:56:00.823Z,51.84
2022-09-07T10:59:01.343Z,51.96
2022-09-07T11:01:02.262Z,52.49
2022-09-07T11:03:27.372Z,52.04
2022-09-07T11:05:40.508Z,52.55
2022-09-07T11:08:02.176Z,51.99
2022-09-07T11:10:18.242Z,51.62
2022-09-07T11:12:30.940Z,53.10
2022-09-07T11:14:42.034Z,53.60
2022-09-07T11:16:54.571Z,54.43
2022-09-07T11:24:03.840Z,55.37
2022-09-07T11:26:15.870Z,55.82
2022-09-07T11:28:27.582Z,55.54
2022-09-07T11:30:35.838Z,55.47
2022-09-07T11:32:45.261Z,54.28
2022-09-07T11:34:55.441Z,53.50
2022-09-07T11:37:05.757Z,52.58
2022-09-07T11:39:19.990Z,52.32
2022-09-07T11:41:31.854Z,52.14
2022-09-07T11:43:45.834Z,51.13
2022-09-07T11:45:55.209Z,51.01
2022-09-07T11:48:06.139Z,51.02
2022-09-07T11:50:18.875Z,49.56
2022-09-07T11:52:34.061Z,50.26
2022-09-07T11:54:48.551Z,50.38
2022-09-07T11:56:57.597Z,50.38
2022-09-07T11:59:26.935Z,50.85
2022-09-07T12:01:46.032Z,51.06
2022-09-07T12:04:23.656Z,51.21
2022-09-07T12:06:50.794Z,51.17
2022-09-07T12:09:07.267Z,51.82
2022-09-07T12:11:44.884Z,51.22
2022-09-07T12:14:03.289Z,50.43
2022-09-07T12:16:18.900Z,49.99
2022-09-07T12:18:41.452Z,48.88
2022-09-07T12:20:47.698Z,48.75
2022-09-07T12:23:04.603Z,49.28
2022-09-07T12:25:12.157Z,49.33
2022-09-07T12:27:42.115Z,48.34
2022-09-07T12:29:46.942Z,48.63
2022-09-07T12:32:07.262Z,47.61
2022-09-07T12:34:42.671Z,47.46
2022-09-07T12:36:53.566Z,47.39
2022-09-07T12:39:25.202Z,46.84
2022-09-07T12:41:49.771Z,46.64
2022-09-07T12:44:11.211Z,46.45
2022-09-07T12:46:23.088Z,46.39
2022-09-07T12:48:43.656Z,47.02
2022-09-07T12:50:59.854Z,47.66
2022-09-07T12:53:27.171Z,47.44
2022-09-07T12:56:18.920Z,47.24
2022-09-07T12:58:37.573Z,47.00
2022-09-07T13:00:57.878Z,46.93
2022-09-07T13:06:06.035Z,47.00
2022-09-07T13:08:41.964Z,47.71
2022-09-07T13:10:47.647Z,48.34
2022-09-07T13:12:54.165Z,48.52
2022-09-07T13:15:02.168Z,48.31
2022-09-07T13:17:38.864Z,48.05
2022-09-07T13:20:23.654Z,48.56
2022-09-07T13:22:59.734Z,48.04
2022-09-07T13:25:06.278Z,47.69
2022-09-07T13:27:47.346Z,47.20
2022-09-07T13:29:56.439Z,47.31
2022-09-07T13:32:12.146Z,47.19
2022-09-07T13:34:32.742Z,45.85
2022-09-07T13:36:43.384Z,45.99
2022-09-07T13:38:55.084Z,46.06
2022-09-07T13:41:06.891Z,46.02
2022-09-07T13:43:19.226Z,45.39
2022-09-07T13:45:33.352Z,44.33
2022-09-07T13:47:55.152Z,44.37
2022-09-07T13:50:11.547Z,43.87
2022-09-07T13:52:21.010Z,43.61
2022-09-07T13:54:39.022Z,43.59
2022-09-07T13:56:53.141Z,43.61
2022-09-07T13:58:58.537Z,42.86
2022-09-07T14:01:07.276Z,41.87
2022-09-07T14:03:19.603Z,42.06
2022-09-07T14:05:24.888Z,42.09
2022-09-07T14:07:31.310Z,41.93
2022-09-07T14:09:38.725Z,42.02
2022-09-07T14:11:45.826Z,41.74
2022-09-07T14:14:19.033Z,41.04
2022-09-07T14:16:24.064Z,40.65
2022-09-07T14:18:33.327Z,40.47
2022-09-07T14:20:43.380Z,40.56
2022-09-07T14:22:53.009Z,40.22
2022-09-07T14:25:03.188Z,39.59
2022-09-07T14:27:09.816Z,40.02
2022-09-07T14:29:24.866Z,40.31
2022-09-07T14:31:30.689Z,40.28
2022-09-07T14:33:35.982Z,40.10
2022-09-07T14:35:42.274Z,40.18
2022-09-07T14:37:50.988Z,39.98
2022-09-07T14:39:56.621Z,40.25
2022-09-07T14:42:05.548Z,38.85
2022-09-07T14:44:30.196Z,38.31
2022-09-07T14:46:36.967Z,38.40
2022-09-07T14:48:42.868Z,37.94
2022-09-07T14:51:05.817Z,37.86
2022-09-07T14:53:36.301Z,37.70
2022-09-07T14:55:47.199Z,37.47
2022-09-07T14:58:11.209Z,37.10
2022-09-07T15:00:30.652Z,37.70
2022-09-07T15:02:38.782Z,36.94
2022-09-07T15:04:43.620Z,36.96
2022-09-07T15:07:03.877Z,35.85
2022-09-07T15:09:09.352Z,36.47
2022-09-07T15:13:46.998Z,36.89
2022-09-07T15:16:01.319Z,36.10
2022-09-07T15:18:09.200Z,36.18
2022-09-07T15:20:36.567Z,36.42
2022-09-07T15:22:41.343Z,36.01
2022-09-07T15:24:46.243Z,35.09
2022-09-07T15:27:08.514Z,34.53
2022-09-07T15:29:20.542Z,34.29
2022-09-07T15:31:43.404Z,34.17
2022-09-07T15:33:51.105Z,34.27
2022-09-07T15:35:58.748Z,34.04
2022-09-07T15:38:05.265Z,33.27
2022-09-07T15:40:20.572Z,31.75
2022-09-07T15:44:53.622Z,32.59
2022-09-07T15:49:24.174Z,31.87
2022-09-07T15:56:20.332Z,32.67
2022-09-07T15:58:25.342Z,33.04
2022-09-07T16:00:32.967Z,33.61
2022-09-07T16:05:04.141Z,34.41
2022-09-07T16:07:09.126Z,34.63
2022-09-07T16:09:15.597Z,34.79
2022-09-07T16:11:24.236Z,35.20
2022-09-07T16:13:31.457Z,34.68
2022-09-07T16:15:45.676Z,34.90
2022-09-07T16:17:53.984Z,34.56
2022-09-07T16:20:02.093Z,34.44
2022-09-07T16:22:07.344Z,35.12
2022-09-07T16:24:12.782Z,35.19
2022-09-07T16:26:19.259Z,35.32
2022-09-07T16:28:24.132Z,34.92
2022-09-07T16:30:28.717Z,35.85
2022-09-07T16:32:51.752Z,36.05
2022-09-07T16:34:56.576Z,36.31
2022-09-07T16:37:01.319Z,36.15
2022-09-07T16:39:06.227Z,36.19
2022-09-07T16:41:15.131Z,36.65
2022-09-07T16:43:20.063Z,36.15
2022-09-07T16:47:52.965Z,36.25
2022-09-07T16:49:58.193Z,37.05
2022-09-07T16:52:03.088Z,36.75
2022-09-07T16:54:08.724Z,37.23
2022-09-07T16:56:16.959Z,37.62
2022-09-07T16:58:37.876Z,38.13
2022-09-07T17:00:42.918Z,37.76
2022-09-07T17:02:47.725Z,37.72
2022-09-07T17:04:55.093Z,37.92
2022-09-07T17:06:59.920Z,37.76
2022-09-07T17:09:04.657Z,38.64
2022-09-07T17:11:11.336Z,38.38
2022-09-07T17:13:16.161Z,38.90
2022-09-07T17:15:20.955Z,38.87
2022-09-07T17:17:26.007Z,38.53
2022-09-07T17:19:31.127Z,39.33
2022-09-07T17:21:41.936Z,38.61
2022-09-07T17:23:54.364Z,38.85
2022-09-07T17:26:07.113Z,38.70
2022-09-07T17:28:12.406Z,39.23
2022-09-07T17:30:20.733Z,39.56
2022-09-07T17:32:27.471Z,38.96
2022-09-07T17:34:32.636Z,39.35
2022-09-07T17:36:40.980Z,39.63
2022-09-07T17:41:12.789Z,40.34
2022-09-07T17:45:42.369Z,40.74
2022-09-07T17:47:49.538Z,41.36
2022-09-07T17:49:54.351Z,41.43
2022-09-07T17:52:02.288Z,41.27
2022-09-07T17:54:11.162Z,42.02
2022-09-07T17:56:18.635Z,41.48
2022-09-07T17:58:23.811Z,41.96
2022-09-07T18:00:28.827Z,42.04
2022-09-07T18:02:33.634Z,42.48
2022-09-07T18:04:38.500Z,42.51
2022-09-07T18:06:43.838Z,42.89
2022-09-07T18:08:53.195Z,42.94
2022-09-07T18:13:35.024Z,43.66
2022-09-07T18:15:42.496Z,43.66
2022-09-07T18:17:49.790Z,43.46
2022-09-07T18:19:54.773Z,43.55
2022-09-07T18:21:59.458Z,43.89
2022-09-07T18:24:08.922Z,44.07
2022-09-07T18:26:13.811Z,44.75
2022-09-07T18:30:43.064Z,45.32
2022-09-07T18:32:47.853Z,44.93
2022-09-07T18:34:52.618Z,45.18
2022-09-07T18:36:58.280Z,45.57
2022-09-07T18:39:06.864Z,45.82
2022-09-07T18:41:14.214Z,45.66
2022-09-07T18:43:18.967Z,45.34
2022-09-07T18:45:27.504Z,45.67
2022-09-07T18:47:32.673Z,45.42
2022-09-07T18:49:37.557Z,45.32
2022-09-07T18:54:09.533Z,46.28
2022-09-07T18:56:17.286Z,46.70
2022-09-07T18:58:22.118Z,47.25
2022-09-07T19:00:26.998Z,47.75
2022-09-07T19:02:31.847Z,47.83
2022-09-07T19:07:01.519Z,49.11
2022-09-07T19:09:09.249Z,49.33
2022-09-07T19:11:16.256Z,49.24
2022-09-07T19:13:21.060Z,49.17
2022-09-07T19:15:25.910Z,49.19
2022-09-07T19:17:30.692Z,48.95
2022-09-07T19:19:35.685Z,48.98
2022-09-07T19:21:46.498Z,49.63
2022-09-07T19:23:56.610Z,50.03
2022-09-07T19:26:05.143Z,49.46
2022-09-07T19:28:10.014Z,50.13
2022-09-07T19:30:15.603Z,50.22
2022-09-07T19:32:20.775Z,50.44
2022-09-07T19:34:25.914Z,50.45
2022-09-07T19:36:32.653Z,50.36
2022-09-07T19:38:37.976Z,50.81
2022-09-07T19:40:42.822Z,50.78
2022-09-07T19:42:50.178Z,51.26
2022-09-07T19:44:55.384Z,51.91
2022-09-07T19:47:00.496Z,52.17
2022-09-07T19:49:12.056Z,52.74
2022-09-07T19:51:18.560Z,52.93
2022-09-07T19:53:23.641Z,52.92
2022-09-07T19:55:28.459Z,52.82
2022-09-07T19:57:33.284Z,53.15
2022-09-07T19:59:40.686Z,53.31
2022-09-07T20:01:48.508Z,53.20
2022-09-07T20:03:59.400Z,53.43
2022-09-07T20:06:08.088Z,53.44
2022-09-07T20:08:12.866Z,53.03
2022-09-07T20:10:18.250Z,52.78
2022-09-07T20:12:23.082Z,53.05
2022-09-07T20:14:27.939Z,52.92
2022-09-07T20:16:38.152Z,53.63
2022-09-07T20:18:44.224Z,54.61
2022-09-07T20:20:53.060Z,54.95
2022-09-07T20:22:57.881Z,55.76
2022-09-07T20:25:02.657Z,56.28
2022-09-07T20:27:07.949Z,56.12
2022-09-07T20:29:29.217Z,56.07
2022-09-07T20:31:37.035Z,55.48
2022-09-07T20:33:42.737Z,55.45
2022-09-07T20:35:47.827Z,55.59
2022-09-07T20:37:52.446Z,55.18
2022-09-07T20:39:57.794Z,54.93
2022-09-07T20:42:02.795Z,54.70
2022-09-07T20:44:07.392Z,54.72
2022-09-07T20:46:12.417Z,54.55
2022-09-07T20:48:20.080Z,54.40
2022-09-07T20:50:26.107Z,54.68
2022-09-07T20:52:30.853Z,54.44
2022-09-07T20:54:37.770Z,54.39
2022-09-07T20:56:42.686Z,54.40
2022-09-07T20:58:49.659Z,54.99
2022-09-07T21:00:54.963Z,55.08
2022-09-07T21:02:59.879Z,55.32
2022-09-07T21:05:08.016Z,54.89
2022-09-07T21:07:12.892Z,54.31
2022-09-07T21:09:17.502Z,54.68
2022-09-07T21:11:24.504Z,54.64
2022-09-07T21:13:29.352Z,54.65
2022-09-07T21:15:34.130Z,55.07
2022-09-07T21:17:38.882Z,54.89
2022-09-07T21:19:43.594Z,55.16
2022-09-07T21:21:52.639Z,55.07
2022-09-07T21:23:59.338Z,55.16
2022-09-07T21:26:05.132Z,54.99
2022-09-07T21:28:09.904Z,54.84
2022-09-07T21:30:16.297Z,54.87
2022-09-07T21:32:21.068Z,55.77
2022-09-07T21:34:27.404Z,56.61
2022-09-07T21:36:34.120Z,57.21
2022-09-07T21:38:42.897Z,56.82
2022-09-07T21:40:47.823Z,57.08
2022-09-07T21:42:54.244Z,56.41
2022-09-07T21:44:58.980Z,56.66
2022-09-07T21:47:03.842Z,57.42
2022-09-07T21:49:08.912Z,57.93
2022-09-07T21:51:13.437Z,58.98
2022-09-07T21:53:18.388Z,60.64
2022-09-07T21:55:25.818Z,61.85
2022-09-07T21:57:30.551Z,61.75
2022-09-07T21:59:35.398Z,62.09
2022-09-07T22:01:40.964Z,62.26
2022-09-07T22:03:46.703Z,62.63
2022-09-07T22:05:53.695Z,62.55
2022-09-07T22:07:58.479Z,62.07
2022-09-07T22:10:03.608Z,61.55
2022-09-07T22:12:11.306Z,60.85
2022-09-07T22:14:16.889Z,60.59
2022-09-07T22:16:22.150Z,60.46
2022-09-07T22:18:27.067Z,60.26
2022-09-07T22:20:31.869Z,60.39
2022-09-07T22:22:37.144Z,59.67
2022-09-07T22:24:41.940Z,59.87
2022-09-07T22:26:47.019Z,59.38
2022-09-07T22:28:55.469Z,58.81
2022-09-07T22:31:10.377Z,58.80
2022-09-07T22:33:15.236Z,58.79
2022-09-07T22:35:21.588Z,59.06
2022-09-07T22:37:26.803Z,61.13
2022-09-07T22:39:31.849Z,62.34
2022-09-07T22:41:38.270Z,63.46
2022-09-07T22:43:43.677Z,63.64
2022-09-07T22:45:52.110Z,63.19
2022-09-07T22:47:57.439Z,62.55
2022-09-07T22:50:02.485Z,62.79
2022-09-07T22:52:07.055Z,62.41
2022-09-07T22:54:12.132Z,61.98
2022-09-07T22:56:18.736Z,62.08
2022-09-07T22:58:23.814Z,60.75
2022-09-07T23:00:28.261Z,60.69
2022-09-07T23:02:35.695Z,60.89
2022-09-07T23:04:40.567Z,61.96
2022-09-07T23:06:46.081Z,62.19
2022-09-07T23:08:50.865Z,61.77
2022-09-07T23:10:55.824Z,61.32
2022-09-07T23:13:00.565Z,61.62
2022-09-07T23:15:05.397Z,61.66
2022-09-07T23:17:10.158Z,60.85
2022-09-07T23:19:19.665Z,61.04
2022-09-07T23:21:24.449Z,61.76
2022-09-07T23:23:29.938Z,61.89
2022-09-07T23:25:37.788Z,62.12
2022-09-07T23:27:42.530Z,62.47
2022-09-07T23:29:47.357Z,63.10
2022-09-07T23:31:52.170Z,63.96
2022-09-07T23:33:57.420Z,64.28
2022-09-07T23:36:07.441Z,64.97
2022-09-07T23:38:12.415Z,66.36
2022-09-07T23:40:17.478Z,65.95
2022-09-07T23:42:22.201Z,65.31
2022-09-07T23:44:26.943Z,64.78
2022-09-07T23:46:31.693Z,64.81
2022-09-07T23:48:36.456Z,64.58
2022-09-07T23:50:41.438Z,64.28
2022-09-07T23:52:48.775Z,63.81
2022-09-07T23:54:53.846Z,64.40
2022-09-07T23:56:58.384Z,64.07
2022-09-07T23:59:03.129Z,64.51
